Terminal Aerodrome Forecast
Issued by NWS

Home | Current Version | Previous Version | Text Only | Print | Product List | Glossary On
Versions: 1 2 3 4 5 6 7 8 9 10 11 12 13 14
507
FTUS46 KHNX 230229 AAA
TAFBFL
TAF AMD
KBFL 230229Z 2302/2324 28008KT P6SM -RA VCSH BKN020 BKN028 OVC070
     FM230600 32006KT P6SM BKN045
     FM231800 30008KT P6SM SCT050=

USA.gov is the U.S. government's official web portal to all federal, state and local government web resources and services.